MRIT2: Lake Meredith

                                SHEF ID:       MRIT2     Lake Meredith
STATION TYPE: RESERVOIR
Flood Pool: Bottom = 2941.30, Top = 2965.00

PRECIP ELEVATION STORAGE INFLOW RELEASE WIND-DIRWIND-SPEED
in ft ac-ft cfs cfs deg mph
Ccp-Rev Ccp-Rev Ccp-Rev Rev-Regi Rev-Regi Ccp-Rev Ccp-Rev
(America/Chicago)
07/01 00:00 ---- 2891.76 263227 81 0 125.00 4.00
07/01 01:00 ---- 2891.77 263305 81 0 79.00 0.00
07/01 02:00 ---- 2891.74 263070 81 0 172.00 1.00
07/01 03:00 ---- 2891.75 263148 81 0 146.00 2.00
07/01 04:00 ---- 2891.72 262913 41 0 127.00 1.00
07/01 05:00 ---- 2891.75 263148 41 0 147.00 2.00
07/01 06:00 ---- 2891.75 263148 0 0 231.00 1.00
07/01 07:00 ---- 2891.75 263148 0 0 109.00 3.00
07/01 08:00 ---- 2891.75 263148 0 0 ---- ----
07/01 09:00 ---- 2891.72 262913 0 0 ---- ----
07/01 10:00 ---- 2891.75 263148 0 0 ---- ----
07/01 11:00 ---- 2891.74 263070 0 0 ---- ----
07/01 12:00 ---- 2891.75 263148 950 0 ---- ----
07/01 13:00 ---- 2891.75 263148 1518 0 ---- ----
07/01 14:00 ---- 2891.80 263541 1518 0 ---- ----
07/01 15:00 ---- 2891.83 263776 1518 0 ---- ----
07/01 16:00 ---- 2891.84 263854 1518 0 ---- ----
07/01 17:00 ---- 2891.83 263776 568 0 ---- ----
07/01 18:00 ---- 2891.83 263776 0 0 ---- ----
07/01 19:00 ---- 2891.84 263854 189 0 ---- ----
07/01 20:00 ---- 2891.83 263776 189 0 ---- ----
07/01 21:00 ---- 2891.84 263854 379 0 ---- ----
07/01 22:00 ---- 2891.84 263854 189 0 ---- ----
07/01 23:00 ---- ---- ---- ---- ---- ---- ----
Data processed at Wed 02Jul2025 04:43 GMT

Parsing this webpage?

Checkout our new Data API! CWMSDataAPI (CDA)

Timeseries IDs (TSIDs)

TSIDs used from left to right in the data table
MERE.Precip-Inc.Total.1Hour.1Hour.Ccp-Rev
MERE.Elev.Inst.1Hour.0.Ccp-Rev
MERE.Stor.Inst.1Hour.0.Ccp-Rev
MERE.Flow-Res In.Ave.1Hour.1Hour.Rev-Regi-Computed
MERE.Flow-Res Out.Ave.1Hour.1Hour.Rev-Regi-Flowgroup
MERE.Dir-Wind.Inst.1Hour.0.Ccp-Rev
MERE.Speed-Wind.Inst.1Hour.0.Ccp-Rev

                            

All information presented herein is the property of the government of the United States of America and may be revised or deleted at any time without prior notice. Dissemination of this information without the expressed written consent of the Public Affairs Office, Tulsa District U.S. Army Corps of Engineers is strictly prohibited. These data are gathered electronically and, as presented, have NOT undergone any form of quality control. These data are NOT guaranteed to be valid or correct.